Time;durP1;ratioP1;P1;durP2;ratioP2;P2;SDS_P1;SDS_P2;PMS_P1;PMS_P2;Temp;Humidity;BMP_temperature;BMP_pressure;BME280_temperature;BME280_humidity;BME280_pressure;Samples;Min_cycle;Max_cycle;Signal;HPM_P1;HPM_P2
2022/08/02 00:01:47;;;;;;;1.40;1.27;;;22.90;99.90;;;;;;7380452;19;20455;-47
2022/08/02 00:04:17;;;;;;;2.53;1.90;;;22.80;99.90;;;;;;7385966;19;20394;-46
2022/08/02 00:06:49;;;;;;;2.40;1.50;;;22.80;99.90;;;;;;7389323;19;20436;-46
2022/08/02 00:09:18;;;;;;;2.37;1.80;;;22.90;99.90;;;;;;7387238;19;20416;-46
2022/08/02 00:11:48;;;;;;;4.60;2.03;;;22.90;99.90;;;;;;7387276;19;20372;-47
2022/08/02 00:14:17;;;;;;;2.03;1.73;;;22.90;99.90;;;;;;7384236;19;20401;-46
2022/08/02 00:16:47;;;;;;;2.53;2.03;;;22.90;99.90;;;;;;7382456;19;20380;-46
2022/08/02 00:19:17;;;;;;;3.30;2.03;;;22.90;99.90;;;;;;7387443;19;20371;-46
2022/08/02 00:21:49;;;;;;;2.27;2.03;;;23.00;99.90;;;;;;7387371;19;20376;-46
2022/08/02 00:24:18;;;;;;;2.07;1.83;;;23.00;99.90;;;;;;7386019;19;20379;-46
2022/08/02 00:26:48;;;;;;;1.87;1.63;;;22.90;99.90;;;;;;7388508;19;20395;-46
2022/08/02 00:29:17;;;;;;;2.90;1.97;;;22.90;99.90;;;;;;7386933;19;20372;-47
2022/08/02 00:31:47;;;;;;;2.77;1.87;;;23.00;99.90;;;;;;7382983;19;20700;-47
2022/08/02 00:34:17;;;;;;;2.90;2.07;;;22.90;99.90;;;;;;7374007;19;20441;-48
2022/08/02 00:36:49;;;;;;;3.00;2.23;;;22.90;99.90;;;;;;7386669;19;20463;-47
2022/08/02 00:39:18;;;;;;;2.70;2.47;;;22.80;99.90;;;;;;7388378;19;20961;-47
2022/08/02 00:41:49;;;;;;;2.40;2.07;;;22.80;99.90;;;;;;7387956;19;20372;-47
2022/08/02 00:44:20;;;;;;;4.80;1.90;;;22.70;99.90;;;;;;7380183;19;20376;-48
2022/08/02 00:46:50;;;;;;;1.93;1.73;;;22.80;99.90;;;;;;7382776;19;20389;-48
2022/08/02 00:49:19;;;;;;;4.77;2.30;;;22.70;99.90;;;;;;7386142;19;20383;-48
2022/08/02 00:51:51;;;;;;;3.27;2.20;;;22.80;99.90;;;;;;7388316;19;20932;-48
2022/08/02 00:54:23;;;;;;;2.70;2.07;;;22.90;99.90;;;;;;7386066;19;20378;-47
2022/08/02 00:56:55;;;;;;;2.80;1.90;;;22.80;99.90;;;;;;7382226;19;21208;-47
2022/08/02 00:59:25;;;;;;;3.20;2.20;;;22.60;99.90;;;;;;7384762;19;20437;-47
2022/08/02 01:01:54;;;;;;;3.03;2.30;;;22.50;99.90;;;;;;7384941;19;20409;-47
2022/08/02 01:04:24;;;;;;;2.13;1.93;;;22.40;99.90;;;;;;7385322;19;20380;-48
2022/08/02 01:06:56;;;;;;;3.30;2.23;;;22.30;99.90;;;;;;7384990;19;20388;-48
2022/08/02 01:09:25;;;;;;;2.67;1.90;;;22.10;99.90;;;;;;7388767;19;20408;-48
2022/08/02 01:11:58;;;;;;;2.50;2.30;;;22.20;99.90;;;;;;7385979;19;20368;-47
2022/08/02 01:14:28;;;;;;;2.33;2.13;;;22.20;99.90;;;;;;7382240;19;20909;-47
2022/08/02 01:17:06;;;;;;;2.13;1.93;;;22.30;99.90;;;;;;7384747;19;20360;-47
2022/08/02 01:19:42;;;;;;;2.33;1.90;;;22.30;99.90;;;;;;7384103;19;20767;-47
2022/08/02 01:22:48;;;;;;;2.73;2.43;;;22.50;99.90;;;;;;7387470;19;20443;-47
2022/08/02 01:25:35;;;;;;;2.20;2.00;;;22.60;99.90;;;;;;7384310;19;21463;-48
2022/08/02 01:28:34;;;;;;;2.67;1.87;;;22.40;99.90;;;;;;7383747;19;20372;-47
2022/08/02 01:31:12;;;;;;;1.87;1.70;;;22.40;99.90;;;;;;7381647;19;20384;-48
2022/08/02 01:33:46;;;;;;;2.17;1.93;;;22.30;99.90;;;;;;7382045;19;20384;-48
2022/08/02 01:36:22;;;;;;;3.10;2.00;;;22.40;99.90;;;;;;7386863;19;20379;-47
2022/08/02 01:38:56;;;;;;;1.87;1.70;;;22.40;99.90;;;;;;7387574;19;20455;-47
2022/08/02 01:41:28;;;;;;;2.53;1.93;;;22.50;99.90;;;;;;7383506;19;20917;-47
2022/08/02 01:44:03;;;;;;;1.63;1.53;;;22.50;99.90;;;;;;7383517;19;20423;-47
2022/08/02 01:46:34;;;;;;;3.60;1.73;;;22.50;99.90;;;;;;7380241;19;20371;-47
2022/08/02 01:49:08;;;;;;;2.73;1.87;;;22.40;99.90;;;;;;7381909;19;20496;-48
2022/08/02 01:54:24;;;;;;;3.30;2.10;;;22.20;99.90;;;;;;7384284;19;20741;-47
2022/08/02 01:56:55;;;;;;;3.20;1.70;;;22.30;99.90;;;;;;7381782;19;20540;-47
2022/08/02 01:59:33;;;;;;;2.17;1.97;;;22.20;99.90;;;;;;7385894;19;20391;-47
2022/08/02 02:02:03;;;;;;;2.30;2.00;;;22.30;99.90;;;;;;7381911;19;20459;-47
2022/08/02 02:04:34;;;;;;;2.20;1.57;;;22.40;99.90;;;;;;7384802;19;20689;-47
2022/08/02 02:07:04;;;;;;;1.87;1.77;;;22.40;99.90;;;;;;7383081;19;20721;-47
2022/08/02 02:09:39;;;;;;;1.73;1.47;;;22.60;99.90;;;;;;7383172;19;20400;-48
2022/08/02 02:12:11;;;;;;;3.00;1.80;;;22.60;99.90;;;;;;7383134;19;20382;-48
2022/08/02 02:14:45;;;;;;;1.63;1.53;;;22.60;99.90;;;;;;7383885;19;20399;-48
2022/08/02 02:17:17;;;;;;;2.57;2.30;;;22.60;99.90;;;;;;7384899;19;20418;-47
2022/08/02 02:19:47;;;;;;;2.67;2.13;;;22.60;99.90;;;;;;7381970;19;20397;-48
2022/08/02 02:22:17;;;;;;;2.40;1.70;;;22.50;99.90;;;;;;7385510;19;20384;-48
2022/08/02 02:24:46;;;;;;;2.63;1.87;;;22.30;99.90;;;;;;7384095;19;20950;-48
2022/08/02 02:27:21;;;;;;;2.07;1.80;;;22.20;99.90;;;;;;7382626;19;20368;-48
2022/08/02 02:29:55;;;;;;;3.07;1.60;;;22.10;99.90;;;;;;7381616;19;20368;-48
2022/08/02 02:32:29;;;;;;;1.90;1.57;;;22.10;99.90;;;;;;7380445;19;20384;-48
2022/08/02 02:35:03;;;;;;;1.33;1.23;;;22.00;99.90;;;;;;7378108;19;20388;-47
2022/08/02 02:37:36;;;;;;;2.30;1.63;;;22.10;99.90;;;;;;7384955;19;20913;-47
2022/08/02 02:40:07;;;;;;;2.10;1.70;;;22.10;99.90;;;;;;7381768;19;20375;-46
2022/08/02 02:42:40;;;;;;;8.43;2.20;;;22.10;99.90;;;;;;7383975;19;20415;-46
2022/08/02 02:45:14;;;;;;;2.30;2.00;;;22.20;99.90;;;;;;7377689;19;20381;-46
2022/08/02 02:47:44;;;;;;;2.53;2.13;;;22.10;99.90;;;;;;7382525;19;20372;-46
2022/08/02 02:50:14;;;;;;;2.53;1.90;;;22.00;99.90;;;;;;7379470;19;20395;-46
2022/08/02 02:52:44;;;;;;;2.33;2.00;;;22.00;99.90;;;;;;7383036;19;20371;-46
2022/08/02 02:55:17;;;;;;;2.97;1.50;;;21.90;99.90;;;;;;7381845;19;20897;-46
2022/08/02 02:57:47;;;;;;;1.63;1.37;;;22.00;99.90;;;;;;7385500;19;20376;-46
2022/08/02 03:01:26;;;;;;;1.83;1.60;;;22.00;99.90;;;;;;7374990;19;20439;-46
2022/08/02 03:03:10;;;;;;;2.03;1.63;;;21.90;99.90;;;;;;7375709;19;20376;-46
2022/08/02 03:05:40;;;;;;;3.67;1.87;;;21.80;99.90;;;;;;7379981;19;20368;-46
2022/08/02 03:08:10;;;;;;;1.70;1.60;;;21.80;99.90;;;;;;7381405;19;20408;-46
2022/08/02 03:10:40;;;;;;;2.60;1.67;;;21.70;99.90;;;;;;7377807;19;20380;-45
2022/08/02 03:13:10;;;;;;;2.90;1.77;;;21.80;99.90;;;;;;7382888;19;20996;-46
2022/08/02 03:15:42;;;;;;;1.93;1.73;;;21.70;99.90;;;;;;7378704;19;20394;-46
2022/08/02 03:18:12;;;;;;;2.00;1.80;;;21.70;99.90;;;;;;7383447;19;20787;-46
2022/08/02 03:20:44;;;;;;;2.23;1.63;;;21.60;99.90;;;;;;7387437;19;20827;-46
2022/08/02 03:23:13;;;;;;;5.13;1.93;;;21.50;99.90;;;;;;7390257;19;20455;-46
2022/08/02 03:25:43;;;;;;;2.43;1.87;;;21.40;99.90;;;;;;7384523;19;20376;-46
2022/08/02 03:28:12;;;;;;;1.93;1.70;;;21.40;99.90;;;;;;7389381;19;20380;-46
2022/08/02 03:30:50;;;;;;;6.00;2.10;;;21.40;99.90;;;;;;7386182;19;20763;-46
2022/08/02 03:33:20;;;;;;;4.60;1.90;;;21.40;99.90;;;;;;7391591;19;20383;-46
2022/08/02 03:35:51;;;;;;;1.77;1.63;;;21.40;99.90;;;;;;7385340;19;20407;-46
2022/08/02 03:38:23;;;;;;;3.00;2.00;;;21.30;99.90;;;;;;7380328;19;20423;-46
2022/08/02 03:40:53;;;;;;;2.60;1.70;;;21.20;99.90;;;;;;7387253;19;20371;-47
2022/08/02 03:43:26;;;;;;;2.00;1.70;;;21.00;99.90;;;;;;7392542;19;20822;-47
2022/08/02 03:45:59;;;;;;;2.70;1.70;;;20.90;99.90;;;;;;7384266;19;20488;-47
2022/08/02 03:48:29;;;;;;;5.73;2.07;;;20.80;99.90;;;;;;7390456;19;20901;-47
2022/08/02 03:51:01;;;;;;;5.17;2.03;;;20.70;99.90;;;;;;7388305;19;20467;-47
2022/08/02 03:53:31;;;;;;;3.17;2.30;;;20.70;99.90;;;;;;7386034;19;20376;-47
2022/08/02 03:56:02;;;;;;;2.50;2.10;;;20.70;99.90;;;;;;7391821;19;20806;-47
2022/08/02 03:58:34;;;;;;;1.87;1.73;;;20.60;99.90;;;;;;7389854;19;20375;-47
2022/08/02 04:01:06;;;;;;;2.53;1.97;;;20.50;99.90;;;;;;7386463;19;20965;-47
2022/08/02 04:03:36;;;;;;;2.23;1.70;;;20.60;99.90;;;;;;7386937;19;20391;-47
2022/08/02 04:06:05;;;;;;;2.80;1.90;;;20.60;99.90;;;;;;7390266;19;20356;-47
2022/08/02 04:08:35;;;;;;;3.43;1.90;;;20.50;99.90;;;;;;7389245;19;21000;-47
2022/08/02 04:13:49;;;;;;;8.80;2.40;;;20.50;99.90;;;;;;7388652;19;20935;-47
2022/08/02 04:16:24;;;;;;;2.47;2.13;;;20.30;99.90;;;;;;7385809;19;20412;-47
2022/08/02 04:18:57;;;;;;;2.20;2.00;;;20.30;99.90;;;;;;7391040;19;20413;-47
2022/08/02 04:21:29;;;;;;;2.30;2.00;;;20.30;99.90;;;;;;7388610;19;20448;-47
2022/08/02 04:24:00;;;;;;;2.40;2.20;;;20.40;99.90;;;;;;7385763;19;20400;-47
2022/08/02 04:26:31;;;;;;;2.73;2.40;;;20.50;99.90;;;;;;7388752;19;20377;-47
2022/08/02 04:29:01;;;;;;;2.40;1.90;;;20.50;99.90;;;;;;7390338;19;20897;-47
2022/08/02 04:31:33;;;;;;;5.00;2.37;;;20.20;99.90;;;;;;7385368;19;20950;-47
2022/08/02 04:34:04;;;;;;;3.20;1.90;;;20.30;99.90;;;;;;7389687;19;20372;-47
2022/08/02 04:36:34;;;;;;;2.63;1.90;;;20.40;99.90;;;;;;7387909;19;20376;-47
2022/08/02 04:39:03;;;;;;;6.63;2.13;;;20.40;99.90;;;;;;7390800;19;20379;-47
2022/08/02 04:41:42;;;;;;;2.10;1.93;;;20.40;99.90;;;;;;7388417;19;20383;-47
2022/08/02 04:44:14;;;;;;;3.40;2.13;;;20.40;99.90;;;;;;7387371;19;20398;-47
2022/08/02 04:46:47;;;;;;;3.13;2.00;;;20.40;99.90;;;;;;7378272;19;20384;-47
2022/08/02 04:49:16;;;;;;;3.07;2.43;;;20.40;99.90;;;;;;7384204;19;20487;-47
2022/08/02 04:51:46;;;;;;;2.63;2.20;;;20.40;99.90;;;;;;7387323;19;21139;-47
2022/08/02 04:54:15;;;;;;;3.57;2.30;;;20.30;99.90;;;;;;7384694;19;20384;-47
2022/08/02 04:56:45;;;;;;;3.57;2.63;;;20.30;99.90;;;;;;7383108;19;20464;-47
2022/08/02 04:59:14;;;;;;;2.67;2.30;;;20.20;99.90;;;;;;7386049;19;20388;-47
2022/08/02 05:01:47;;;;;;;2.17;1.90;;;20.20;99.90;;;;;;7382869;19;20443;-47
2022/08/02 05:04:16;;;;;;;5.07;2.50;;;20.30;99.90;;;;;;7379571;19;20388;-48
2022/08/02 05:06:45;;;;;;;2.30;1.87;;;20.40;99.90;;;;;;7378165;19;20380;-47
2022/08/02 05:09:15;;;;;;;2.37;2.17;;;20.50;99.90;;;;;;7386008;19;20449;-47
2022/08/02 05:11:44;;;;;;;2.10;1.90;;;20.60;99.90;;;;;;7380895;19;20729;-48
2022/08/02 05:14:14;;;;;;;2.70;2.50;;;20.60;99.90;;;;;;7385185;19;20379;-48
2022/08/02 05:16:46;;;;;;;4.03;2.53;;;20.80;99.90;;;;;;7379129;19;20420;-48
2022/08/02 05:19:15;;;;;;;5.80;2.70;;;20.90;99.90;;;;;;7383260;19;20392;-48
2022/08/02 05:21:45;;;;;;;3.27;2.73;;;21.10;99.90;;;;;;7387397;19;20965;-48
2022/08/02 05:24:14;;;;;;;5.33;2.80;;;21.30;99.90;;;;;;7382307;19;20368;-48
2022/08/02 05:26:44;;;;;;;5.23;3.47;;;21.50;99.90;;;;;;7383568;19;20421;-48
2022/08/02 05:29:13;;;;;;;4.37;3.47;;;21.70;99.90;;;;;;7376141;19;21358;-48
2022/08/02 05:31:48;;;;;;;2.43;2.23;;;21.90;99.90;;;;;;7383077;19;20395;-48
2022/08/02 05:34:22;;;;;;;3.13;2.60;;;22.10;99.90;;;;;;7376785;19;20367;-48
2022/08/02 05:36:55;;;;;;;3.57;2.40;;;22.00;99.90;;;;;;7383974;19;20383;-48
2022/08/02 05:39:24;;;;;;;2.97;2.17;;;22.10;99.90;;;;;;7381901;19;20372;-47
2022/08/02 05:41:54;;;;;;;3.40;2.27;;;22.20;99.90;;;;;;7374665;19;20447;-48
2022/08/02 05:44:23;;;;;;;2.70;2.10;;;22.30;99.90;;;;;;7378885;19;20396;-48
2022/08/02 05:46:55;;;;;;;3.10;2.67;;;22.40;99.90;;;;;;7377694;19;20975;-48
2022/08/02 05:49:24;;;;;;;4.37;2.20;;;22.60;99.90;;;;;;7385216;19;21428;-47
2022/08/02 05:52:02;;;;;;;5.93;2.63;;;22.60;99.00;;;;;;7382966;19;20941;-46
2022/08/02 05:54:40;;;;;;;3.40;2.40;;;22.40;98.60;;;;;;7385475;19;20445;-46
2022/08/02 05:57:18;;;;;;;3.20;2.70;;;22.40;98.70;;;;;;7387188;19;20376;-46
2022/08/02 05:59:59;;;;;;;4.33;2.80;;;22.70;94.90;;;;;;7384226;19;20908;-46
2022/08/02 06:02:36;;;;;;;4.50;2.80;;;22.70;94.50;;;;;;7381687;19;20776;-47
2022/08/02 06:05:12;;;;;;;3.50;2.50;;;22.70;93.60;;;;;;7387321;19;20703;-47
2022/08/02 06:07:44;;;;;;;4.07;2.60;;;22.80;93.00;;;;;;7384834;19;21064;-47
2022/08/02 06:10:15;;;;;;;3.00;2.43;;;22.70;91.70;;;;;;7387130;19;20372;-46
2022/08/02 06:12:49;;;;;;;2.90;2.60;;;22.80;92.00;;;;;;7384482;19;20391;-47
2022/08/02 06:15:21;;;;;;;3.30;2.60;;;23.00;92.00;;;;;;7385908;19;20797;-47
2022/08/02 06:17:54;;;;;;;3.10;2.30;;;23.00;90.90;;;;;;7385246;19;20434;-46
2022/08/02 06:20:24;;;;;;;3.10;2.70;;;23.20;90.50;;;;;;7388083;19;20930;-47
2022/08/02 06:22:56;;;;;;;2.83;2.60;;;23.30;90.20;;;;;;7384314;19;20375;-47
2022/08/02 06:25:29;;;;;;;4.07;2.50;;;23.50;88.70;;;;;;7384026;19;20368;-47
2022/08/02 06:28:00;;;;;;;3.43;2.53;;;23.60;87.20;;;;;;7383046;19;20405;-47
2022/08/02 06:30:30;;;;;;;2.87;2.50;;;23.50;86.40;;;;;;7385463;19;20859;-47
2022/08/02 06:33:02;;;;;;;5.03;2.90;;;23.50;86.00;;;;;;7385283;19;20375;-47
2022/08/02 06:35:45;;;;;;;3.40;3.10;;;23.60;85.50;;;;;;7385893;19;20775;-47
2022/08/02 06:38:21;;;;;;;4.80;2.87;;;23.70;83.10;;;;;;7383122;19;20372;-47
2022/08/02 06:40:54;;;;;;;3.20;2.90;;;23.90;83.20;;;;;;7383636;19;20384;-47
2022/08/02 06:43:32;;;;;;;3.93;3.20;;;24.00;80.70;;;;;;7383781;19;21419;-47
2022/08/02 06:46:03;;;;;;;3.83;3.17;;;24.10;79.90;;;;;;7383267;19;20476;-47
2022/08/02 06:48:35;;;;;;;3.50;2.60;;;24.20;78.60;;;;;;7382253;19;20376;-47
2022/08/02 06:51:08;;;;;;;4.67;2.77;;;24.30;78.10;;;;;;7382379;19;20387;-47
2022/08/02 06:53:37;;;;;;;7.33;3.77;;;24.50;77.80;;;;;;7383407;19;20391;-47
2022/08/02 06:56:07;;;;;;;4.00;2.90;;;24.50;75.70;;;;;;7383103;19;20801;-47
2022/08/02 06:58:36;;;;;;;2.90;2.60;;;24.60;75.70;;;;;;7384472;19;20402;-47
2022/08/02 07:01:08;;;;;;;2.97;2.67;;;24.70;75.10;;;;;;7383974;19;20432;-47
2022/08/02 07:03:42;;;;;;;4.10;2.90;;;24.90;73.90;;;;;;7382713;19;20475;-46
2022/08/02 07:06:11;;;;;;;5.70;2.73;;;24.90;72.90;;;;;;7380619;19;20388;-45
2022/08/02 07:08:41;;;;;;;5.47;2.90;;;24.90;74.00;;;;;;7381909;19;20420;-45
2022/08/02 07:11:13;;;;;;;4.27;3.47;;;25.00;73.90;;;;;;7383502;19;20376;-45
2022/08/02 07:13:42;;;;;;;3.97;3.20;;;25.10;72.30;;;;;;7382120;19;20416;-45
2022/08/02 07:16:12;;;;;;;6.00;3.57;;;25.20;71.50;;;;;;7381286;19;24548;-45
2022/08/02 07:18:47;;;;;;;3.47;3.17;;;25.10;71.00;;;;;;7381935;19;20372;-46
2022/08/02 07:21:16;;;;;;;4.73;3.20;;;25.20;70.80;;;;;;7382247;19;20372;-45
2022/08/02 07:23:46;;;;;;;4.47;2.87;;;25.20;70.20;;;;;;7384464;19;20416;-46
2022/08/02 07:26:17;;;;;;;2.73;2.40;;;25.10;70.10;;;;;;7384296;19;20394;-47
2022/08/02 07:28:47;;;;;;;4.60;3.50;;;25.20;70.40;;;;;;7376575;19;20372;-46
2022/08/02 07:31:19;;;;;;;3.37;2.57;;;25.50;69.20;;;;;;7382949;19;21188;-45
2022/08/02 07:33:51;;;;;;;3.00;2.63;;;25.70;68.30;;;;;;7382855;19;20420;-45
2022/08/02 07:36:21;;;;;;;5.57;3.70;;;26.00;66.50;;;;;;7378532;19;20376;-46
2022/08/02 07:38:51;;;;;;;3.70;2.90;;;26.10;66.00;;;;;;7383385;19;20376;-46
2022/08/02 07:41:21;;;;;;;5.27;3.27;;;26.30;65.30;;;;;;7382392;19;20372;-46
2022/08/02 07:43:50;;;;;;;6.13;3.60;;;26.50;63.60;;;;;;7382669;19;20384;-46
2022/08/02 07:46:20;;;;;;;6.20;4.90;;;26.60;63.90;;;;;;7382008;19;20388;-46
2022/08/02 07:48:53;;;;;;;6.43;3.80;;;26.70;62.70;;;;;;7379720;19;20380;-46
2022/08/02 07:51:23;;;;;;;4.03;3.27;;;26.70;62.40;;;;;;7381194;19;20383;-46
2022/08/02 07:53:52;;;;;;;4.17;3.77;;;26.70;61.50;;;;;;7384485;19;20901;-46
2022/08/02 07:56:25;;;;;;;3.63;3.30;;;26.70;60.80;;;;;;7380395;19;20455;-45
2022/08/02 07:58:54;;;;;;;4.83;3.30;;;26.70;61.50;;;;;;7383943;19;20723;-46
2022/08/02 08:01:24;;;;;;;8.83;3.43;;;26.80;61.60;;;;;;7377587;19;21619;-47
2022/08/02 08:03:56;;;;;;;4.43;3.13;;;27.00;61.10;;;;;;7382206;19;20439;-46
2022/08/02 08:06:25;;;;;;;5.80;3.60;;;27.20;60.50;;;;;;7389301;19;20367;-46
2022/08/02 08:08:55;;;;;;;6.20;3.90;;;27.30;59.50;;;;;;7386079;19;20423;-46
2022/08/02 08:11:24;;;;;;;3.10;2.80;;;27.40;59.30;;;;;;7387199;19;20392;-47
2022/08/02 08:13:53;;;;;;;5.67;3.10;;;27.40;59.80;;;;;;7387045;19;20372;-47
2022/08/02 08:16:25;;;;;;;3.93;3.53;;;27.60;59.40;;;;;;7385282;19;20384;-47
2022/08/02 08:18:57;;;;;;;4.73;2.53;;;27.80;58.70;;;;;;7385731;19;20379;-47
2022/08/02 08:21:27;;;;;;;3.33;2.60;;;27.90;58.70;;;;;;7387525;19;20730;-47
2022/08/02 08:23:56;;;;;;;4.03;2.97;;;28.00;58.00;;;;;;7389499;19;20380;-47
2022/08/02 08:26:26;;;;;;;4.87;2.97;;;28.10;57.20;;;;;;7388804;19;20395;-48
2022/08/02 08:28:55;;;;;;;3.30;2.67;;;28.20;56.80;;;;;;7386006;19;20978;-47
2022/08/02 08:31:25;;;;;;;4.27;3.30;;;28.50;56.70;;;;;;7389816;19;21032;-47
2022/08/02 08:33:57;;;;;;;7.30;3.03;;;28.60;55.60;;;;;;7387601;19;20400;-47
2022/08/02 08:36:30;;;;;;;4.40;3.20;;;28.70;55.70;;;;;;7387789;19;20399;-46
2022/08/02 08:39:01;;;;;;;4.13;2.97;;;28.70;55.40;;;;;;7388846;19;20416;-47
2022/08/02 08:41:33;;;;;;;3.40;3.10;;;28.80;55.20;;;;;;7385909;19;20364;-47
2022/08/02 08:44:07;;;;;;;3.50;3.00;;;28.90;54.90;;;;;;7389278;19;20387;-47
2022/08/02 08:46:39;;;;;;;4.80;3.10;;;29.10;54.40;;;;;;7386102;19;20956;-47
2022/08/02 08:49:21;;;;;;;3.37;2.90;;;29.40;53.10;;;;;;7385338;19;20433;-47
2022/08/02 08:51:56;;;;;;;3.30;3.00;;;29.70;52.40;;;;;;7386519;19;20368;-47
2022/08/02 08:54:29;;;;;;;5.83;3.70;;;29.90;52.30;;;;;;7386043;19;21164;-46
2022/08/02 08:57:00;;;;;;;5.43;3.20;;;30.20;50.90;;;;;;7386958;19;20372;-46
2022/08/02 08:59:29;;;;;;;3.90;3.17;;;30.30;51.10;;;;;;7387272;19;20383;-46
2022/08/02 09:02:04;;;;;;;3.57;3.20;;;30.40;49.80;;;;;;7388202;19;20376;-46
2022/08/02 09:04:36;;;;;;;5.20;2.43;;;30.30;50.40;;;;;;7389165;19;20405;-46
2022/08/02 09:07:06;;;;;;;3.60;2.90;;;30.50;50.30;;;;;;7388450;19;20380;-46
2022/08/02 09:09:35;;;;;;;4.43;3.10;;;30.80;49.30;;;;;;7386754;19;20885;-46
2022/08/02 09:12:16;;;;;;;3.67;2.67;;;31.20;48.90;;;;;;7384091;19;20439;-47
2022/08/02 09:14:46;;;;;;;3.40;3.10;;;31.60;47.50;;;;;;7386425;19;20360;-46
2022/08/02 09:17:19;;;;;;;4.73;3.30;;;31.90;46.90;;;;;;7382825;19;20373;-46
2022/08/02 09:20:09;;;;;;;3.80;3.03;;;32.40;46.30;;;;;;7381616;19;20364;-46
2022/08/02 09:22:38;;;;;;;3.37;2.40;;;32.70;44.70;;;;;;7383517;19;20369;-46
2022/08/02 09:25:17;;;;;;;3.30;3.03;;;33.00;44.60;;;;;;7384681;19;20378;-46
2022/08/02 09:27:50;;;;;;;2.77;2.57;;;33.40;43.70;;;;;;7386973;19;20376;-46
2022/08/02 09:30:20;;;;;;;3.33;3.03;;;33.50;43.80;;;;;;7388520;19;20368;-47
2022/08/02 09:32:51;;;;;;;3.17;2.87;;;33.50;43.10;;;;;;7387388;19;20416;-47
2022/08/02 09:35:38;;;;;;;3.57;3.10;;;33.60;42.50;;;;;;7383470;19;20384;-47
2022/08/02 09:38:11;;;;;;;5.00;2.97;;;34.10;42.40;;;;;;7386498;19;20405;-47
2022/08/02 09:40:44;;;;;;;7.67;3.33;;;34.50;41.70;;;;;;7385751;19;20372;-47
2022/08/02 09:43:15;;;;;;;4.70;3.00;;;34.80;40.90;;;;;;7386116;19;20393;-47
2022/08/02 09:45:47;;;;;;;4.93;4.37;;;35.30;41.00;;;;;;7378579;19;20784;-47
2022/08/02 09:48:17;;;;;;;3.10;2.80;;;35.80;39.50;;;;;;7384478;19;21446;-47
2022/08/02 09:50:51;;;;;;;3.00;2.70;;;36.20;39.30;;;;;;7383836;19;20387;-47
2022/08/02 09:53:20;;;;;;;3.90;3.00;;;36.70;38.70;;;;;;7380875;19;20387;-47
2022/08/02 09:55:57;;;;;;;3.00;2.50;;;36.90;37.30;;;;;;7383350;19;20977;-47
2022/08/02 09:58:27;;;;;;;3.33;3.03;;;37.50;36.50;;;;;;7384876;19;20368;-48
2022/08/02 10:00:58;;;;;;;2.97;2.50;;;38.00;36.10;;;;;;7384909;19;20440;-47
2022/08/02 10:03:27;;;;;;;4.20;2.83;;;37.90;36.50;;;;;;7382798;19;20735;-47
2022/08/02 10:06:03;;;;;;;3.20;2.63;;;37.50;35.80;;;;;;7382790;19;20741;-47
2022/08/02 10:08:33;;;;;;;3.57;3.27;;;36.70;37.00;;;;;;7384379;19;20436;-47
2022/08/02 10:11:03;;;;;;;3.03;2.73;;;36.20;38.10;;;;;;7383326;19;20375;-47
2022/08/02 10:13:34;;;;;;;3.83;3.03;;;35.40;38.70;;;;;;7387664;19;20405;-47
2022/08/02 10:16:08;;;;;;;4.80;4.40;;;34.40;40.30;;;;;;7385932;19;20383;-47
2022/08/02 10:18:40;;;;;;;6.27;3.37;;;34.30;40.70;;;;;;7386534;19;20381;-47
2022/08/02 10:21:17;;;;;;;2.70;2.50;;;35.10;39.90;;;;;;7384438;19;20697;-48
2022/08/02 10:23:49;;;;;;;6.40;3.30;;;36.20;37.80;;;;;;7380660;19;20383;-47
2022/08/02 10:26:24;;;;;;;3.30;3.03;;;36.10;37.30;;;;;;7378972;19;21163;-47
2022/08/02 10:28:55;;;;;;;4.23;3.77;;;35.30;38.40;;;;;;7368886;19;20399;-47
2022/08/02 10:31:28;;;;;;;2.97;2.77;;;34.60;39.50;;;;;;7374373;19;20507;-47
2022/08/02 10:34:00;;;;;;;8.57;2.70;;;34.80;39.80;;;;;;7374369;19;20375;-47
2022/08/02 10:36:36;;;;;;;6.27;2.60;;;36.20;38.10;;;;;;7376904;19;20364;-47
2022/08/02 10:39:06;;;;;;;3.57;2.97;;;36.60;36.60;;;;;;7380596;19;20380;-48
2022/08/02 10:41:43;;;;;;;4.83;3.20;;;36.00;37.00;;;;;;7378238;19;20380;-47
2022/08/02 10:44:30;;;;;;;4.57;3.33;;;35.10;38.50;;;;;;7377451;19;20379;-47
2022/08/02 10:47:21;;;;;;;3.43;3.13;;;34.00;39.70;;;;;;7383497;19;20388;-46
2022/08/02 10:49:53;;;;;;;6.40;3.50;;;33.10;41.20;;;;;;7374251;19;20376;-48
2022/08/02 10:52:26;;;;;;;3.60;2.90;;;32.70;42.80;;;;;;7375690;19;20376;-48
2022/08/02 10:54:59;;;;;;;3.13;2.83;;;34.50;39.90;;;;;;7380524;19;20379;-49
2022/08/02 10:57:30;;;;;;;2.97;2.77;;;37.20;36.40;;;;;;7379169;19;20391;-48
2022/08/02 11:00:03;;;;;;;4.20;2.70;;;39.40;32.90;;;;;;7384820;19;20436;-48
2022/08/02 11:02:50;;;;;;;2.90;2.70;;;40.80;30.60;;;;;;7380735;19;20769;-48
2022/08/02 11:05:29;;;;;;;4.00;3.00;;;41.40;30.40;;;;;;7378895;19;20471;-48
2022/08/02 11:08:18;;;;;;;2.90;2.70;;;41.00;30.40;;;;;;7371819;19;20463;-48
2022/08/02 11:10:49;;;;;;;3.37;3.07;;;39.80;31.20;;;;;;7376609;19;20936;-48
2022/08/02 11:13:19;;;;;;;3.20;3.00;;;37.70;35.90;;;;;;7376199;19;20368;-48
2022/08/02 11:15:51;;;;;;;4.70;3.00;;;37.30;43.70;;;;;;7382356;19;20684;-48
2022/08/02 11:18:22;;;;;;;3.30;2.67;;;38.60;41.20;;;;;;7377616;19;20380;-48
2022/08/02 11:21:21;;;;;;;3.67;2.33;;;40.20;38.00;;;;;;7375147;19;20396;-48
2022/08/02 11:23:54;;;;;;;3.00;2.80;;;41.40;29.80;;;;;;7378277;19;20380;-49
2022/08/02 11:26:45;;;;;;;2.93;2.73;;;42.60;29.10;;;;;;7381463;19;20368;-48
2022/08/02 11:29:15;;;;;;;2.60;2.40;;;43.50;30.60;;;;;;7381437;19;20379;-49
2022/08/02 11:31:46;;;;;;;2.80;2.60;;;44.00;32.00;;;;;;7381318;19;20379;-48
2022/08/02 11:34:18;;;;;;;3.10;2.50;;;44.70;31.70;;;;;;7382915;19;20379;-48
2022/08/02 11:36:49;;;;;;;2.30;2.10;;;44.90;26.70;;;;;;7374509;19;20376;-49
2022/08/02 11:39:25;;;;;;;2.80;2.50;;;45.30;26.30;;;;;;7379615;19;20933;-49
2022/08/02 11:41:57;;;;;;;4.23;2.53;;;45.40;26.10;;;;;;7382445;19;20737;-49
2022/08/02 11:44:27;;;;;;;2.80;2.60;;;44.20;26.70;;;;;;7384800;19;20746;-49
2022/08/02 11:46:58;;;;;;;6.07;3.43;;;42.70;27.90;;;;;;7385209;19;20379;-49
2022/08/02 11:49:28;;;;;;;3.73;3.30;;;41.30;28.90;;;;;;7385678;19;20427;-48
2022/08/02 11:52:04;;;;;;;4.03;3.30;;;39.80;30.20;;;;;;7383911;19;20396;-48
2022/08/02 11:54:39;;;;;;;3.43;3.13;;;38.40;31.60;;;;;;7385804;19;20372;-48
2022/08/02 11:57:16;;;;;;;3.00;2.70;;;37.50;33.10;;;;;;7381509;19;20378;-48
2022/08/02 11:59:47;;;;;;;4.43;3.13;;;37.60;33.30;;;;;;7385888;19;20427;-49
2022/08/02 12:02:18;;;;;;;3.50;3.20;;;37.50;32.70;;;;;;7383800;19;20380;-48
2022/08/02 12:04:56;;;;;;;3.50;3.10;;;37.30;33.10;;;;;;7381999;19;20463;-48
2022/08/02 12:07:29;;;;;;;4.00;2.80;;;36.60;34.30;;;;;;7386100;19;20384;-48
2022/08/02 12:10:05;;;;;;;4.30;3.40;;;36.20;35.10;;;;;;7382588;19;20965;-49
2022/08/02 12:12:35;;;;;;;4.20;3.70;;;35.60;35.80;;;;;;7382862;19;20379;-48
2022/08/02 12:15:08;;;;;;;3.37;3.07;;;35.00;36.60;;;;;;7381397;19;20396;-48
2022/08/02 12:20:22;;;;;;;4.00;3.70;;;34.30;38.00;;;;;;7383429;19;20924;-48
2022/08/02 12:22:52;;;;;;;3.30;3.00;;;34.40;38.50;;;;;;7381667;19;20403;-48
2022/08/02 12:25:30;;;;;;;5.47;3.30;;;34.30;38.40;;;;;;7380462;19;20382;-48
2022/08/02 12:28:15;;;;;;;3.70;3.37;;;33.70;38.90;;;;;;7386996;19;20415;-48
2022/08/02 12:30:53;;;;;;;3.67;3.20;;;32.70;40.60;;;;;;7384635;19;20384;-48
2022/08/02 12:33:23;;;;;;;6.00;3.20;;;32.70;41.10;;;;;;7386233;19;20364;-48
2022/08/02 12:35:54;;;;;;;4.40;3.67;;;32.90;40.60;;;;;;7378431;19;20777;-48
2022/08/02 12:38:24;;;;;;;3.53;3.23;;;32.60;40.50;;;;;;7373652;19;20364;-48
2022/08/02 12:40:56;;;;;;;4.43;3.30;;;33.50;39.60;;;;;;7384776;19;20459;-49
2022/08/02 12:43:26;;;;;;;4.40;3.30;;;34.20;38.30;;;;;;7376516;19;20368;-48
2022/08/02 12:45:58;;;;;;;3.27;2.97;;;34.10;37.70;;;;;;7379441;19;20372;-48
2022/08/02 12:48:36;;;;;;;4.00;3.30;;;34.70;37.40;;;;;;7385696;19;20419;-48
2022/08/02 12:51:20;;;;;;;3.33;3.03;;;36.20;35.20;;;;;;7380179;19;20379;-48
2022/08/02 12:53:56;;;;;;;3.47;3.07;;;37.80;32.90;;;;;;7383410;19;20431;-48
2022/08/02 12:56:38;;;;;;;3.27;2.97;;;38.90;31.50;;;;;;7388236;19;20428;-48
2022/08/02 12:59:11;;;;;;;3.60;3.30;;;38.80;31.20;;;;;;7371381;19;20951;-48
2022/08/02 13:01:44;;;;;;;3.57;3.27;;;37.90;32.10;;;;;;7382750;19;20790;-49
2022/08/02 13:04:13;;;;;;;4.17;3.10;;;37.00;33.20;;;;;;7382968;19;20388;-48
2022/08/02 13:06:43;;;;;;;3.50;2.80;;;36.60;34.10;;;;;;7388207;19;20372;-49
2022/08/02 13:09:17;;;;;;;2.83;2.63;;;35.90;34.70;;;;;;7381661;19;20447;-48
2022/08/02 13:11:51;;;;;;;3.93;3.03;;;35.50;35.30;;;;;;7384186;19;20390;-48
2022/08/02 13:14:20;;;;;;;3.23;3.00;;;35.20;36.20;;;;;;7381208;19;20393;-48
2022/08/02 13:16:50;;;;;;;4.70;3.30;;;34.90;36.50;;;;;;7356870;19;21235;-48
2022/08/02 13:19:22;;;;;;;3.87;3.57;;;34.70;36.80;;;;;;7371998;19;20380;-53
2022/08/02 13:21:51;;;;;;;3.30;3.00;;;34.30;36.90;;;;;;7369733;19;20379;-48
2022/08/02 13:24:22;;;;;;;4.10;3.30;;;34.00;36.80;;;;;;7385739;19;20372;-48